sensor_id;sensor_type;location;lat;lon;timestamp;temperature;humidity
19880;DHT22;10102;50.828;4.416;2022-09-28T00:04:33;11.00;99.90
19880;DHT22;10102;50.828;4.416;2022-09-28T00:06:59;11.10;99.90
19880;DHT22;10102;50.828;4.416;2022-09-28T00:09:25;11.00;99.90
19880;DHT22;10102;50.828;4.416;2022-09-28T00:11:51;10.90;99.90
19880;DHT22;10102;50.828;4.416;2022-09-28T00:14:19;10.90;99.90
19880;DHT22;10102;50.828;4.416;2022-09-28T00:16:45;11.00;99.90
19880;DHT22;10102;50.828;4.416;2022-09-28T00:19:11;10.90;99.90
19880;DHT22;10102;50.828;4.416;2022-09-28T00:21:40;10.90;99.90
19880;DHT22;10102;50.828;4.416;2022-09-28T00:24:09;11.00;99.90
19880;DHT22;10102;50.828;4.416;2022-09-28T00:31:44;11.20;99.90
19880;DHT22;10102;50.828;4.416;2022-09-28T00:34:10;11.50;99.90
19880;DHT22;10102;50.828;4.416;2022-09-28T00:36:36;11.40;99.90
19880;DHT22;10102;50.828;4.416;2022-09-28T00:39:04;11.60;99.90
19880;DHT22;10102;50.828;4.416;2022-09-28T00:41:30;11.30;99.90
19880;DHT22;10102;50.828;4.416;2022-09-28T00:46:48;11.70;99.90
19880;DHT22;10102;50.828;4.416;2022-09-28T00:49:16;11.60;99.90
19880;DHT22;10102;50.828;4.416;2022-09-28T00:51:46;11.60;99.90
19880;DHT22;10102;50.828;4.416;2022-09-28T00:54:14;11.60;99.90
19880;DHT22;10102;50.828;4.416;2022-09-28T00:56:42;11.50;99.90
19880;DHT22;10102;50.828;4.416;2022-09-28T01:01:36;11.30;99.90
19880;DHT22;10102;50.828;4.416;2022-09-28T01:04:02;11.50;99.90
19880;DHT22;10102;50.828;4.416;2022-09-28T01:06:33;11.30;99.90
19880;DHT22;10102;50.828;4.416;2022-09-28T01:09:04;11.50;99.90
19880;DHT22;10102;50.828;4.416;2022-09-28T01:11:34;9.30;99.90
19880;DHT22;10102;50.828;4.416;2022-09-28T01:14:01;11.50;99.90
19880;DHT22;10102;50.828;4.416;2022-09-28T01:16:39;11.60;99.90
19880;DHT22;10102;50.828;4.416;2022-09-28T01:27:51;11.70;99.90
19880;DHT22;10102;50.828;4.416;2022-09-28T01:30:20;11.60;99.90
19880;DHT22;10102;50.828;4.416;2022-09-28T01:33:03;11.30;99.90
19880;DHT22;10102;50.828;4.416;2022-09-28T01:35:38;11.40;99.90
19880;DHT22;10102;50.828;4.416;2022-09-28T01:38:20;11.30;99.90
19880;DHT22;10102;50.828;4.416;2022-09-28T01:40:48;11.30;99.90
19880;DHT22;10102;50.828;4.416;2022-09-28T01:43:20;11.20;99.90
19880;DHT22;10102;50.828;4.416;2022-09-28T01:46:37;11.00;99.90
19880;DHT22;10102;50.828;4.416;2022-09-28T01:48:38;11.30;99.90
19880;DHT22;10102;50.828;4.416;2022-09-28T01:51:13;11.40;99.90
19880;DHT22;10102;50.828;4.416;2022-09-28T01:53:46;11.00;99.90
19880;DHT22;10102;50.828;4.416;2022-09-28T01:56:34;11.10;99.90
19880;DHT22;10102;50.828;4.416;2022-09-28T01:59:16;11.10;99.90
19880;DHT22;10102;50.828;4.416;2022-09-28T02:02:04;11.10;99.90
19880;DHT22;10102;50.828;4.416;2022-09-28T02:04:34;11.20;99.90
19880;DHT22;10102;50.828;4.416;2022-09-28T02:07:08;11.20;99.90
19880;DHT22;10102;50.828;4.416;2022-09-28T02:09:42;11.20;99.90
19880;DHT22;10102;50.828;4.416;2022-09-28T02:12:39;11.40;99.90
19880;DHT22;10102;50.828;4.416;2022-09-28T02:15:22;11.40;99.90
19880;DHT22;10102;50.828;4.416;2022-09-28T02:17:50;11.40;99.90
19880;DHT22;10102;50.828;4.416;2022-09-28T02:20:17;11.40;99.90
19880;DHT22;10102;50.828;4.416;2022-09-28T02:22:53;11.30;99.90
19880;DHT22;10102;50.828;4.416;2022-09-28T02:28:03;11.40;99.90
19880;DHT22;10102;50.828;4.416;2022-09-28T02:30:36;11.40;99.90
19880;DHT22;10102;50.828;4.416;2022-09-28T02:33:15;11.40;99.90
19880;DHT22;10102;50.828;4.416;2022-09-28T02:35:43;11.20;99.90
19880;DHT22;10102;50.828;4.416;2022-09-28T02:38:13;11.10;99.90
19880;DHT22;10102;50.828;4.416;2022-09-28T02:40:39;11.10;99.90
19880;DHT22;10102;50.828;4.416;2022-09-28T02:43:09;10.90;99.90
19880;DHT22;10102;50.828;4.416;2022-09-28T02:46:07;10.90;99.90
19880;DHT22;10102;50.828;4.416;2022-09-28T02:51:26;10.70;99.90
19880;DHT22;10102;50.828;4.416;2022-09-28T02:54:11;10.80;99.90
19880;DHT22;10102;50.828;4.416;2022-09-28T02:57:11;10.70;99.90
19880;DHT22;10102;50.828;4.416;2022-09-28T02:59:56;10.40;99.90
19880;DHT22;10102;50.828;4.416;2022-09-28T03:07:44;10.80;99.90
19880;DHT22;10102;50.828;4.416;2022-09-28T03:12:45;10.60;99.90
19880;DHT22;10102;50.828;4.416;2022-09-28T03:17:39;10.60;99.90
19880;DHT22;10102;50.828;4.416;2022-09-28T03:20:05;11.00;99.90
19880;DHT22;10102;50.828;4.416;2022-09-28T03:22:31;10.60;99.90
19880;DHT22;10102;50.828;4.416;2022-09-28T03:24:57;10.60;99.90
19880;DHT22;10102;50.828;4.416;2022-09-28T03:27:25;10.60;99.90
19880;DHT22;10102;50.828;4.416;2022-09-28T03:29:51;10.80;99.90
19880;DHT22;10102;50.828;4.416;2022-09-28T03:32:18;10.70;99.90
19880;DHT22;10102;50.828;4.416;2022-09-28T03:34:43;10.70;99.90
19880;DHT22;10102;50.828;4.416;2022-09-28T03:37:09;10.80;99.90
19880;DHT22;10102;50.828;4.416;2022-09-28T03:39:34;11.20;99.90
19880;DHT22;10102;50.828;4.416;2022-09-28T03:42:02;10.80;99.90
19880;DHT22;10102;50.828;4.416;2022-09-28T03:44:27;10.80;99.90
19880;DHT22;10102;50.828;4.416;2022-09-28T03:46:53;10.80;99.90
19880;DHT22;10102;50.828;4.416;2022-09-28T03:51:45;10.70;99.90
19880;DHT22;10102;50.828;4.416;2022-09-28T03:54:11;10.70;99.90
19880;DHT22;10102;50.828;4.416;2022-09-28T03:56:37;10.60;99.90
19880;DHT22;10102;50.828;4.416;2022-09-28T03:59:03;10.70;99.90
19880;DHT22;10102;50.828;4.416;2022-09-28T04:01:31;10.70;99.90
19880;DHT22;10102;50.828;4.416;2022-09-28T04:04:02;10.40;99.90
19880;DHT22;10102;50.828;4.416;2022-09-28T04:06:28;10.50;99.90
19880;DHT22;10102;50.828;4.416;2022-09-28T04:08:54;10.10;99.90
19880;DHT22;10102;50.828;4.416;2022-09-28T04:11:20;10.00;99.90
19880;DHT22;10102;50.828;4.416;2022-09-28T04:13:49;10.10;99.90
19880;DHT22;10102;50.828;4.416;2022-09-28T04:16:15;10.10;99.90
19880;DHT22;10102;50.828;4.416;2022-09-28T04:18:42;10.10;99.90
19880;DHT22;10102;50.828;4.416;2022-09-28T04:21:11;10.10;99.90
19880;DHT22;10102;50.828;4.416;2022-09-28T04:23:38;10.10;99.90
19880;DHT22;10102;50.828;4.416;2022-09-28T04:26:06;10.00;99.90
19880;DHT22;10102;50.828;4.416;2022-09-28T04:28:33;10.10;99.90
19880;DHT22;10102;50.828;4.416;2022-09-28T04:31:19;10.10;99.90
19880;DHT22;10102;50.828;4.416;2022-09-28T04:33:45;10.00;99.90
19880;DHT22;10102;50.828;4.416;2022-09-28T04:36:11;9.90;99.90
19880;DHT22;10102;50.828;4.416;2022-09-28T04:38:37;10.10;99.90
19880;DHT22;10102;50.828;4.416;2022-09-28T04:41:04;10.00;99.90
19880;DHT22;10102;50.828;4.416;2022-09-28T04:43:30;10.10;99.90
19880;DHT22;10102;50.828;4.416;2022-09-28T04:46:01;10.10;99.90
19880;DHT22;10102;50.828;4.416;2022-09-28T04:48:28;10.10;99.90
19880;DHT22;10102;50.828;4.416;2022-09-28T04:50:58;10.00;99.90
19880;DHT22;10102;50.828;4.416;2022-09-28T04:53:26;10.00;99.90
19880;DHT22;10102;50.828;4.416;2022-09-28T04:56:00;10.00;99.90
19880;DHT22;10102;50.828;4.416;2022-09-28T04:58:27;9.90;99.90
19880;DHT22;10102;50.828;4.416;2022-09-28T05:01:00;9.80;99.90
19880;DHT22;10102;50.828;4.416;2022-09-28T05:03:26;10.00;99.90
19880;DHT22;10102;50.828;4.416;2022-09-28T05:05:53;10.00;99.90
19880;DHT22;10102;50.828;4.416;2022-09-28T05:08:19;10.10;99.90
19880;DHT22;10102;50.828;4.416;2022-09-28T05:10:46;10.10;99.90
19880;DHT22;10102;50.828;4.416;2022-09-28T05:13:14;10.00;99.90
19880;DHT22;10102;50.828;4.416;2022-09-28T05:15:40;10.00;99.90
19880;DHT22;10102;50.828;4.416;2022-09-28T05:18:07;9.80;99.90
19880;DHT22;10102;50.828;4.416;2022-09-28T05:20:33;9.90;99.90
19880;DHT22;10102;50.828;4.416;2022-09-28T05:23:00;9.90;99.90
19880;DHT22;10102;50.828;4.416;2022-09-28T05:25:26;9.80;99.90
19880;DHT22;10102;50.828;4.416;2022-09-28T05:27:56;9.90;99.90
19880;DHT22;10102;50.828;4.416;2022-09-28T05:30:23;9.90;99.90
19880;DHT22;10102;50.828;4.416;2022-09-28T05:32:48;10.00;99.90
19880;DHT22;10102;50.828;4.416;2022-09-28T05:35:19;10.00;99.90
19880;DHT22;10102;50.828;4.416;2022-09-28T05:37:45;9.90;99.90
19880;DHT22;10102;50.828;4.416;2022-09-28T05:40:11;9.80;99.90
19880;DHT22;10102;50.828;4.416;2022-09-28T05:42:37;9.90;99.90
19880;DHT22;10102;50.828;4.416;2022-09-28T05:45:03;9.90;99.90
19880;DHT22;10102;50.828;4.416;2022-09-28T05:47:29;9.80;99.90
19880;DHT22;10102;50.828;4.416;2022-09-28T05:49:57;9.90;99.90
19880;DHT22;10102;50.828;4.416;2022-09-28T05:52:23;9.90;99.90
19880;DHT22;10102;50.828;4.416;2022-09-28T05:54:48;9.70;99.90
19880;DHT22;10102;50.828;4.416;2022-09-28T05:57:15;9.70;99.90
19880;DHT22;10102;50.828;4.416;2022-09-28T05:59:44;9.70;99.90
19880;DHT22;10102;50.828;4.416;2022-09-28T06:02:10;9.80;99.90
19880;DHT22;10102;50.828;4.416;2022-09-28T06:04:36;10.00;99.90
19880;DHT22;10102;50.828;4.416;2022-09-28T06:07:02;10.20;99.90
19880;DHT22;10102;50.828;4.416;2022-09-28T06:09:27;10.10;99.90
19880;DHT22;10102;50.828;4.416;2022-09-28T06:11:53;10.20;99.90
19880;DHT22;10102;50.828;4.416;2022-09-28T06:16:44;10.30;99.90
19880;DHT22;10102;50.828;4.416;2022-09-28T06:19:11;10.30;99.90
19880;DHT22;10102;50.828;4.416;2022-09-28T06:21:37;10.30;99.90
19880;DHT22;10102;50.828;4.416;2022-09-28T06:24:03;10.20;99.90
19880;DHT22;10102;50.828;4.416;2022-09-28T06:26:29;10.00;99.90
19880;DHT22;10102;50.828;4.416;2022-09-28T06:28:56;10.30;99.90
19880;DHT22;10102;50.828;4.416;2022-09-28T06:31:23;10.30;99.90
19880;DHT22;10102;50.828;4.416;2022-09-28T06:33:49;10.60;99.90
19880;DHT22;10102;50.828;4.416;2022-09-28T06:36:15;10.40;99.90
19880;DHT22;10102;50.828;4.416;2022-09-28T06:38:41;10.50;99.90
19880;DHT22;10102;50.828;4.416;2022-09-28T06:41:07;10.50;99.90
19880;DHT22;10102;50.828;4.416;2022-09-28T06:43:33;10.60;99.90
19880;DHT22;10102;50.828;4.416;2022-09-28T06:46:00;10.60;99.90
19880;DHT22;10102;50.828;4.416;2022-09-28T06:50:52;10.70;99.90
19880;DHT22;10102;50.828;4.416;2022-09-28T06:53:18;10.90;99.90
19880;DHT22;10102;50.828;4.416;2022-09-28T06:55:45;11.30;99.90
19880;DHT22;10102;50.828;4.416;2022-09-28T06:58:16;10.70;99.90
19880;DHT22;10102;50.828;4.416;2022-09-28T07:00:45;10.60;99.90
19880;DHT22;10102;50.828;4.416;2022-09-28T07:03:17;10.60;99.90
19880;DHT22;10102;50.828;4.416;2022-09-28T07:05:49;10.50;99.90
19880;DHT22;10102;50.828;4.416;2022-09-28T07:08:16;10.60;99.90
19880;DHT22;10102;50.828;4.416;2022-09-28T07:10:58;10.50;99.90
19880;DHT22;10102;50.828;4.416;2022-09-28T07:13:25;10.50;99.90
19880;DHT22;10102;50.828;4.416;2022-09-28T07:15:56;10.30;99.90
19880;DHT22;10102;50.828;4.416;2022-09-28T07:18:24;10.40;99.90
19880;DHT22;10102;50.828;4.416;2022-09-28T07:20:51;10.40;99.90
19880;DHT22;10102;50.828;4.416;2022-09-28T07:23:17;10.50;99.90
19880;DHT22;10102;50.828;4.416;2022-09-28T07:25:44;10.20;99.90
19880;DHT22;10102;50.828;4.416;2022-09-28T07:28:12;10.60;99.90
19880;DHT22;10102;50.828;4.416;2022-09-28T07:30:38;10.50;99.90
19880;DHT22;10102;50.828;4.416;2022-09-28T07:33:06;10.60;99.90
19880;DHT22;10102;50.828;4.416;2022-09-28T07:35:32;10.60;99.90
19880;DHT22;10102;50.828;4.416;2022-09-28T07:38:03;10.60;99.90
19880;DHT22;10102;50.828;4.416;2022-09-28T07:40:30;10.40;99.90
19880;DHT22;10102;50.828;4.416;2022-09-28T07:43:15;10.80;99.90
19880;DHT22;10102;50.828;4.416;2022-09-28T07:45:50;10.60;99.90
19880;DHT22;10102;50.828;4.416;2022-09-28T07:48:17;10.70;99.90
19880;DHT22;10102;50.828;4.416;2022-09-28T07:50:53;10.70;99.90
19880;DHT22;10102;50.828;4.416;2022-09-28T07:53:20;10.70;99.90
19880;DHT22;10102;50.828;4.416;2022-09-28T07:55:54;11.10;99.90
19880;DHT22;10102;50.828;4.416;2022-09-28T07:58:21;10.80;99.90
19880;DHT22;10102;50.828;4.416;2022-09-28T08:00:48;10.90;99.90
19880;DHT22;10102;50.828;4.416;2022-09-28T08:03:16;10.80;99.90
19880;DHT22;10102;50.828;4.416;2022-09-28T08:05:42;10.90;99.90
19880;DHT22;10102;50.828;4.416;2022-09-28T08:08:08;10.80;99.90
19880;DHT22;10102;50.828;4.416;2022-09-28T08:10:35;11.10;99.90
19880;DHT22;10102;50.828;4.416;2022-09-28T08:13:02;11.10;99.90
19880;DHT22;10102;50.828;4.416;2022-09-28T08:15:32;11.10;99.90
19880;DHT22;10102;50.828;4.416;2022-09-28T08:18:04;11.10;99.90
19880;DHT22;10102;50.828;4.416;2022-09-28T08:20:31;11.00;99.90
19880;DHT22;10102;50.828;4.416;2022-09-28T08:25:49;11.10;99.90
19880;DHT22;10102;50.828;4.416;2022-09-28T08:28:16;11.20;99.90
19880;DHT22;10102;50.828;4.416;2022-09-28T08:30:43;11.30;99.90
19880;DHT22;10102;50.828;4.416;2022-09-28T08:33:10;11.20;99.90
19880;DHT22;10102;50.828;4.416;2022-09-28T08:35:37;11.20;99.90
19880;DHT22;10102;50.828;4.416;2022-09-28T08:38:05;11.60;99.90
19880;DHT22;10102;50.828;4.416;2022-09-28T08:40:36;11.30;99.90
19880;DHT22;10102;50.828;4.416;2022-09-28T08:43:19;11.40;99.90
19880;DHT22;10102;50.828;4.416;2022-09-28T08:45:47;11.60;99.90
19880;DHT22;10102;50.828;4.416;2022-09-28T08:48:27;11.70;99.90
19880;DHT22;10102;50.828;4.416;2022-09-28T08:53:57;12.00;99.90
19880;DHT22;10102;50.828;4.416;2022-09-28T08:59:11;12.20;99.90
19880;DHT22;10102;50.828;4.416;2022-09-28T09:01:41;12.20;99.90
19880;DHT22;10102;50.828;4.416;2022-09-28T09:04:08;12.30;99.90
19880;DHT22;10102;50.828;4.416;2022-09-28T09:15:01;12.90;99.90
19880;DHT22;10102;50.828;4.416;2022-09-28T09:20:11;13.40;99.90
19880;DHT22;10102;50.828;4.416;2022-09-28T09:22:58;13.40;99.90
19880;DHT22;10102;50.828;4.416;2022-09-28T09:25:41;11.60;99.90
19880;DHT22;10102;50.828;4.416;2022-09-28T09:39:53;14.00;99.90
19880;DHT22;10102;50.828;4.416;2022-09-28T09:48:22;14.50;99.90
19880;DHT22;10102;50.828;4.416;2022-09-28T09:50:59;14.60;99.90
19880;DHT22;10102;50.828;4.416;2022-09-28T09:53:36;14.70;99.90
19880;DHT22;10102;50.828;4.416;2022-09-28T09:56:28;15.00;99.90
19880;DHT22;10102;50.828;4.416;2022-09-28T09:59:04;15.20;99.90
19880;DHT22;10102;50.828;4.416;2022-09-28T10:01:48;15.40;99.90
19880;DHT22;10102;50.828;4.416;2022-09-28T10:04:38;15.60;99.90
19880;DHT22;10102;50.828;4.416;2022-09-28T10:07:19;15.80;99.90
19880;DHT22;10102;50.828;4.416;2022-09-28T10:09:48;15.60;99.90
19880;DHT22;10102;50.828;4.416;2022-09-28T10:12:19;15.60;99.90
19880;DHT22;10102;50.828;4.416;2022-09-28T10:14:46;15.80;99.90
19880;DHT22;10102;50.828;4.416;2022-09-28T10:17:15;16.60;99.90
19880;DHT22;10102;50.828;4.416;2022-09-28T10:19:42;15.90;99.90
19880;DHT22;10102;50.828;4.416;2022-09-28T10:22:12;15.60;99.90
19880;DHT22;10102;50.828;4.416;2022-09-28T10:24:44;15.20;99.90
19880;DHT22;10102;50.828;4.416;2022-09-28T10:27:14;15.70;99.90
19880;DHT22;10102;50.828;4.416;2022-09-28T10:30:02;16.50;99.90
19880;DHT22;10102;50.828;4.416;2022-09-28T10:32:38;17.50;99.90
19880;DHT22;10102;50.828;4.416;2022-09-28T10:35:26;18.80;99.90
19880;DHT22;10102;50.828;4.416;2022-09-28T10:37:57;21.60;99.90
19880;DHT22;10102;50.828;4.416;2022-09-28T10:45:44;22.50;99.90
19880;DHT22;10102;50.828;4.416;2022-09-28T10:48:19;22.20;99.90
19880;DHT22;10102;50.828;4.416;2022-09-28T10:51:05;20.90;99.90
19880;DHT22;10102;50.828;4.416;2022-09-28T10:53:35;19.30;99.90
19880;DHT22;10102;50.828;4.416;2022-09-28T10:56:06;18.50;99.90
19880;DHT22;10102;50.828;4.416;2022-09-28T10:58:42;18.20;99.90
19880;DHT22;10102;50.828;4.416;2022-09-28T11:01:15;17.80;99.90
19880;DHT22;10102;50.828;4.416;2022-09-28T11:04:13;17.40;99.90
19880;DHT22;10102;50.828;4.416;2022-09-28T11:06:44;17.20;99.90
19880;DHT22;10102;50.828;4.416;2022-09-28T11:09:25;17.10;99.90
19880;DHT22;10102;50.828;4.416;2022-09-28T11:11:51;16.70;99.90
19880;DHT22;10102;50.828;4.416;2022-09-28T11:14:33;17.50;99.90
19880;DHT22;10102;50.828;4.416;2022-09-28T11:19:59;20.50;99.90
19880;DHT22;10102;50.828;4.416;2022-09-28T11:22:37;20.00;99.90
19880;DHT22;10102;50.828;4.416;2022-09-28T11:25:32;20.10;99.90
19880;DHT22;10102;50.828;4.416;2022-09-28T11:28:00;19.70;99.90
19880;DHT22;10102;50.828;4.416;2022-09-28T11:33:08;19.90;99.90
19880;DHT22;10102;50.828;4.416;2022-09-28T11:46:35;19.70;99.90
19880;DHT22;10102;50.828;4.416;2022-09-28T11:49:31;20.00;99.90
19880;DHT22;10102;50.828;4.416;2022-09-28T11:52:09;21.30;99.90
19880;DHT22;10102;50.828;4.416;2022-09-28T11:54:44;22.30;99.90
19880;DHT22;10102;50.828;4.416;2022-09-28T11:57:19;22.30;99.90
19880;DHT22;10102;50.828;4.416;2022-09-28T11:59:58;20.90;99.90
19880;DHT22;10102;50.828;4.416;2022-09-28T12:02:38;20.80;99.90
19880;DHT22;10102;50.828;4.416;2022-09-28T12:08:18;22.40;99.90
19880;DHT22;10102;50.828;4.416;2022-09-28T12:10:59;24.70;99.90
19880;DHT22;10102;50.828;4.416;2022-09-28T12:13:36;26.20;99.90
19880;DHT22;10102;50.828;4.416;2022-09-28T12:16:07;29.80;99.90
19880;DHT22;10102;50.828;4.416;2022-09-28T12:19:29;29.80;94.30
19880;DHT22;10102;50.828;4.416;2022-09-28T12:29:37;31.00;83.20
19880;DHT22;10102;50.828;4.416;2022-09-28T12:32:15;28.60;87.70
19880;DHT22;10102;50.828;4.416;2022-09-28T12:34:43;25.40;91.30
19880;DHT22;10102;50.828;4.416;2022-09-28T12:37:31;22.80;95.70
19880;DHT22;10102;50.828;4.416;2022-09-28T12:45:58;19.20;99.90
19880;DHT22;10102;50.828;4.416;2022-09-28T12:48:56;18.10;99.90
19880;DHT22;10102;50.828;4.416;2022-09-28T12:57:33;17.80;99.90
19880;DHT22;10102;50.828;4.416;2022-09-28T13:00:20;17.70;99.90
19880;DHT22;10102;50.828;4.416;2022-09-28T13:08:25;17.70;99.90
19880;DHT22;10102;50.828;4.416;2022-09-28T13:16:46;18.10;99.90
19880;DHT22;10102;50.828;4.416;2022-09-28T13:25:03;19.00;99.90
19880;DHT22;10102;50.828;4.416;2022-09-28T13:27:34;19.20;99.90
19880;DHT22;10102;50.828;4.416;2022-09-28T13:30:03;19.20;99.90
19880;DHT22;10102;50.828;4.416;2022-09-28T13:32:32;19.00;99.90
19880;DHT22;10102;50.828;4.416;2022-09-28T13:34:58;19.00;99.90
19880;DHT22;10102;50.828;4.416;2022-09-28T13:37:27;19.90;99.90
19880;DHT22;10102;50.828;4.416;2022-09-28T13:39:56;19.60;99.90
19880;DHT22;10102;50.828;4.416;2022-09-28T13:42:50;19.30;99.90
19880;DHT22;10102;50.828;4.416;2022-09-28T13:45:24;19.30;99.90
19880;DHT22;10102;50.828;4.416;2022-09-28T13:48:09;18.80;99.90
19880;DHT22;10102;50.828;4.416;2022-09-28T13:53:42;18.10;99.90
19880;DHT22;10102;50.828;4.416;2022-09-28T13:59:17;17.90;99.90
19880;DHT22;10102;50.828;4.416;2022-09-28T14:01:55;17.70;99.90
19880;DHT22;10102;50.828;4.416;2022-09-28T14:10:18;16.60;99.90
19880;DHT22;10102;50.828;4.416;2022-09-28T14:12:52;16.80;99.90
19880;DHT22;10102;50.828;4.416;2022-09-28T14:20:26;16.50;99.90
19880;DHT22;10102;50.828;4.416;2022-09-28T14:26:15;16.80;99.90
19880;DHT22;10102;50.828;4.416;2022-09-28T14:31:22;16.70;99.90
19880;DHT22;10102;50.828;4.416;2022-09-28T14:33:57;16.50;99.90
19880;DHT22;10102;50.828;4.416;2022-09-28T14:36:38;16.60;99.90
19880;DHT22;10102;50.828;4.416;2022-09-28T14:39:27;16.70;99.90
19880;DHT22;10102;50.828;4.416;2022-09-28T14:42:22;16.60;99.90
19880;DHT22;10102;50.828;4.416;2022-09-28T14:50:23;16.40;99.90
19880;DHT22;10102;50.828;4.416;2022-09-28T14:53:12;16.20;99.90
19880;DHT22;10102;50.828;4.416;2022-09-28T14:55:45;16.20;99.90
19880;DHT22;10102;50.828;4.416;2022-09-28T14:58:20;16.50;99.90
19880;DHT22;10102;50.828;4.416;2022-09-28T15:00:49;17.00;99.90
19880;DHT22;10102;50.828;4.416;2022-09-28T15:03:16;17.00;99.90
19880;DHT22;10102;50.828;4.416;2022-09-28T15:05:44;16.80;99.90
19880;DHT22;10102;50.828;4.416;2022-09-28T15:08:14;16.90;99.90
19880;DHT22;10102;50.828;4.416;2022-09-28T15:10:53;16.60;99.90
19880;DHT22;10102;50.828;4.416;2022-09-28T15:13:26;17.00;99.90
19880;DHT22;10102;50.828;4.416;2022-09-28T15:16:08;16.90;99.90
19880;DHT22;10102;50.828;4.416;2022-09-28T15:21:23;17.40;99.90
19880;DHT22;10102;50.828;4.416;2022-09-28T15:23:56;17.70;99.90
19880;DHT22;10102;50.828;4.416;2022-09-28T15:26:23;18.40;99.90
19880;DHT22;10102;50.828;4.416;2022-09-28T15:28:49;18.20;99.90
19880;DHT22;10102;50.828;4.416;2022-09-28T15:31:20;18.10;99.90
19880;DHT22;10102;50.828;4.416;2022-09-28T15:33:47;17.60;99.90
19880;DHT22;10102;50.828;4.416;2022-09-28T15:36:34;17.40;99.90
19880;DHT22;10102;50.828;4.416;2022-09-28T15:39:14;17.20;99.90
19880;DHT22;10102;50.828;4.416;2022-09-28T15:41:42;16.80;99.90
19880;DHT22;10102;50.828;4.416;2022-09-28T15:46:38;16.40;99.90
19880;DHT22;10102;50.828;4.416;2022-09-28T15:49:05;16.40;99.90
19880;DHT22;10102;50.828;4.416;2022-09-28T15:51:46;16.10;99.90
19880;DHT22;10102;50.828;4.416;2022-09-28T15:54:16;15.80;99.90
19880;DHT22;10102;50.828;4.416;2022-09-28T15:56:58;15.80;99.90
19880;DHT22;10102;50.828;4.416;2022-09-28T15:59:36;15.90;99.90
19880;DHT22;10102;50.828;4.416;2022-09-28T16:02:17;15.70;99.90
19880;DHT22;10102;50.828;4.416;2022-09-28T16:04:51;15.80;99.90
19880;DHT22;10102;50.828;4.416;2022-09-28T16:10:00;15.80;99.90
19880;DHT22;10102;50.828;4.416;2022-09-28T16:12:41;15.90;99.90
19880;DHT22;10102;50.828;4.416;2022-09-28T16:15:24;15.80;99.90
19880;DHT22;10102;50.828;4.416;2022-09-28T16:17:57;16.10;99.90
19880;DHT22;10102;50.828;4.416;2022-09-28T16:20:33;15.90;99.90
19880;DHT22;10102;50.828;4.416;2022-09-28T16:23:08;15.80;99.90
19880;DHT22;10102;50.828;4.416;2022-09-28T16:25:35;16.00;99.90
19880;DHT22;10102;50.828;4.416;2022-09-28T16:28:04;15.80;99.90
19880;DHT22;10102;50.828;4.416;2022-09-28T16:30:31;15.90;99.90
19880;DHT22;10102;50.828;4.416;2022-09-28T16:35:33;15.80;99.90
19880;DHT22;10102;50.828;4.416;2022-09-28T16:38:14;15.80;99.90
19880;DHT22;10102;50.828;4.416;2022-09-28T16:40:45;15.70;99.90
19880;DHT22;10102;50.828;4.416;2022-09-28T16:43:30;15.60;99.90
19880;DHT22;10102;50.828;4.416;2022-09-28T16:45:59;15.70;99.90
19880;DHT22;10102;50.828;4.416;2022-09-28T16:48:27;15.70;99.90
19880;DHT22;10102;50.828;4.416;2022-09-28T16:50:54;15.60;99.90
19880;DHT22;10102;50.828;4.416;2022-09-28T16:53:20;15.50;99.90
19880;DHT22;10102;50.828;4.416;2022-09-28T16:56:05;15.60;99.90
19880;DHT22;10102;50.828;4.416;2022-09-28T16:58:31;15.60;99.90
19880;DHT22;10102;50.828;4.416;2022-09-28T17:00:58;15.60;99.90
19880;DHT22;10102;50.828;4.416;2022-09-28T17:03:24;15.50;99.90
19880;DHT22;10102;50.828;4.416;2022-09-28T17:05:51;15.30;99.90
19880;DHT22;10102;50.828;4.416;2022-09-28T17:08:19;15.20;99.90
19880;DHT22;10102;50.828;4.416;2022-09-28T17:10:53;15.10;99.90
19880;DHT22;10102;50.828;4.416;2022-09-28T17:13:25;11.80;99.90
19880;DHT22;10102;50.828;4.416;2022-09-28T17:15:59;14.80;99.90
19880;DHT22;10102;50.828;4.416;2022-09-28T17:18:26;14.90;99.90
19880;DHT22;10102;50.828;4.416;2022-09-28T17:20:54;14.70;99.90
19880;DHT22;10102;50.828;4.416;2022-09-28T17:23:21;14.70;99.90
19880;DHT22;10102;50.828;4.416;2022-09-28T17:25:46;14.70;99.90
19880;DHT22;10102;50.828;4.416;2022-09-28T17:28:19;14.80;99.90
19880;DHT22;10102;50.828;4.416;2022-09-28T17:30:46;14.80;99.90
19880;DHT22;10102;50.828;4.416;2022-09-28T17:33:12;14.70;99.90
19880;DHT22;10102;50.828;4.416;2022-09-28T17:35:38;14.60;99.90
19880;DHT22;10102;50.828;4.416;2022-09-28T17:38:04;14.60;99.90
19880;DHT22;10102;50.828;4.416;2022-09-28T17:40:30;14.50;99.90
19880;DHT22;10102;50.828;4.416;2022-09-28T17:42:56;14.30;99.90
19880;DHT22;10102;50.828;4.416;2022-09-28T17:45:23;14.10;99.90
19880;DHT22;10102;50.828;4.416;2022-09-28T17:47:53;14.30;99.90
19880;DHT22;10102;50.828;4.416;2022-09-28T17:50:22;14.20;99.90
19880;DHT22;10102;50.828;4.416;2022-09-28T17:52:49;14.00;99.90
19880;DHT22;10102;50.828;4.416;2022-09-28T17:55:21;14.00;99.90
19880;DHT22;10102;50.828;4.416;2022-09-28T17:57:48;14.30;99.90
19880;DHT22;10102;50.828;4.416;2022-09-28T18:00:14;14.10;99.90
19880;DHT22;10102;50.828;4.416;2022-09-28T18:02:41;14.10;99.90
19880;DHT22;10102;50.828;4.416;2022-09-28T18:07:36;14.00;99.90
19880;DHT22;10102;50.828;4.416;2022-09-28T18:10:04;14.00;99.90
19880;DHT22;10102;50.828;4.416;2022-09-28T18:12:30;14.10;99.90
19880;DHT22;10102;50.828;4.416;2022-09-28T18:14:55;14.00;99.90
19880;DHT22;10102;50.828;4.416;2022-09-28T18:17:21;14.00;99.90
19880;DHT22;10102;50.828;4.416;2022-09-28T18:19:47;14.00;99.90
19880;DHT22;10102;50.828;4.416;2022-09-28T18:22:12;14.00;99.90
19880;DHT22;10102;50.828;4.416;2022-09-28T18:24:38;14.00;99.90
19880;DHT22;10102;50.828;4.416;2022-09-28T18:27:04;13.90;99.90
19880;DHT22;10102;50.828;4.416;2022-09-28T18:29:29;13.70;99.90
19880;DHT22;10102;50.828;4.416;2022-09-28T18:31:55;13.50;99.90
19880;DHT22;10102;50.828;4.416;2022-09-28T18:34:21;13.70;99.90
19880;DHT22;10102;50.828;4.416;2022-09-28T18:36:46;14.10;99.90
19880;DHT22;10102;50.828;4.416;2022-09-28T18:39:12;13.70;99.90
19880;DHT22;10102;50.828;4.416;2022-09-28T18:41:38;13.60;99.90
19880;DHT22;10102;50.828;4.416;2022-09-28T18:44:04;13.50;99.90
19880;DHT22;10102;50.828;4.416;2022-09-28T18:46:30;13.40;99.90
19880;DHT22;10102;50.828;4.416;2022-09-28T18:49:02;13.50;99.90
19880;DHT22;10102;50.828;4.416;2022-09-28T18:51:28;13.60;99.90
19880;DHT22;10102;50.828;4.416;2022-09-28T18:53:53;13.40;99.90
19880;DHT22;10102;50.828;4.416;2022-09-28T18:56:19;13.60;99.90
19880;DHT22;10102;50.828;4.416;2022-09-28T18:58:46;13.70;99.90
19880;DHT22;10102;50.828;4.416;2022-09-28T19:01:17;13.60;99.90
19880;DHT22;10102;50.828;4.416;2022-09-28T19:03:44;13.50;99.90